Time;durP1;ratioP1;P1;durP2;ratioP2;P2;SDS_P1;SDS_P2;PMS_P1;PMS_P2;Temp;Humidity;BMP_temperature;BMP_pressure;BME280_temperature;BME280_humidity;BME280_pressure;Samples;Min_cycle;Max_cycle;Signal;HPM_P1;HPM_P2
2021/03/09 00:00:33;;;;;;;208.10;72.93;;;-7.00;93.00;;;;;;5029925;28;20022;-83
2021/03/09 00:02:59;;;;;;;208.30;75.53;;;-7.00;93.40;;;;;;5014686;28;20037;-84
2021/03/09 00:05:25;;;;;;;196.73;69.97;;;-7.00;92.70;;;;;;5029049;28;20103;-83
2021/03/09 00:07:51;;;;;;;170.93;63.70;;;-7.00;92.30;;;;;;5029773;28;20454;-79
2021/03/09 00:10:17;;;;;;;150.63;57.97;;;-7.10;91.30;;;;;;5029806;28;20040;-79
2021/03/09 00:12:42;;;;;;;165.50;60.97;;;-7.00;91.10;;;;;;5029710;28;20487;-79
2021/03/09 00:15:09;;;;;;;155.77;54.17;;;-7.10;90.70;;;;;;5029810;28;20017;-79
2021/03/09 00:17:34;;;;;;;150.43;54.73;;;-7.10;91.50;;;;;;5029167;28;20024;-79
2021/03/09 00:20:01;;;;;;;148.73;57.40;;;-7.20;91.40;;;;;;5013829;28;20436;-80
2021/03/09 00:22:26;;;;;;;144.90;52.03;;;-7.20;92.10;;;;;;5027552;28;20030;-81
2021/03/09 00:24:52;;;;;;;141.10;52.40;;;-7.20;92.90;;;;;;5029221;28;20021;-80
2021/03/09 00:27:18;;;;;;;122.43;50.07;;;-7.20;93.30;;;;;;5013029;28;20026;-81
2021/03/09 00:29:43;;;;;;;140.17;50.03;;;-7.20;93.20;;;;;;5029271;28;20032;-80
2021/03/09 00:32:09;;;;;;;130.47;48.90;;;-7.30;93.40;;;;;;5012923;28;20022;-80
2021/03/09 00:34:36;;;;;;;132.27;46.80;;;-7.20;93.60;;;;;;5013896;28;20034;-80
2021/03/09 00:37:02;;;;;;;121.73;47.07;;;-7.30;92.40;;;;;;5029276;28;20026;-81
2021/03/09 00:39:28;;;;;;;115.63;45.30;;;-7.30;92.30;;;;;;5029195;28;20033;-82
2021/03/09 00:41:54;;;;;;;136.77;54.20;;;-7.30;92.60;;;;;;5029327;28;20022;-82
2021/03/09 00:44:19;;;;;;;182.30;58.77;;;-7.30;92.20;;;;;;5029101;28;20021;-83
2021/03/09 00:46:45;;;;;;;146.93;50.13;;;-7.30;91.30;;;;;;5013877;28;20060;-82
2021/03/09 00:49:11;;;;;;;115.67;43.00;;;-7.40;90.40;;;;;;5012690;28;20399;-81
2021/03/09 00:51:37;;;;;;;122.00;46.40;;;-7.50;89.20;;;;;;5013627;28;20438;-81
2021/03/09 00:54:02;;;;;;;122.43;48.83;;;-7.50;89.60;;;;;;5013809;28;20022;-81
2021/03/09 00:56:28;;;;;;;137.97;48.53;;;-7.60;90.40;;;;;;5013766;28;20034;-81
2021/03/09 00:58:53;;;;;;;138.23;48.67;;;-7.50;91.90;;;;;;5013641;28;20028;-81
2021/03/09 01:01:19;;;;;;;142.83;52.13;;;-7.60;92.70;;;;;;5012553;28;20476;-81
2021/03/09 01:03:45;;;;;;;152.43;51.07;;;-7.60;92.60;;;;;;5028723;28;20044;-81
2021/03/09 01:06:11;;;;;;;145.53;52.57;;;-7.60;92.90;;;;;;5012302;28;20029;-81
2021/03/09 01:08:37;;;;;;;139.40;50.30;;;-7.60;93.00;;;;;;5028702;28;20032;-82
2021/03/09 01:11:02;;;;;;;143.67;51.83;;;-7.60;92.60;;;;;;5012310;28;20112;-84
2021/03/09 01:13:28;;;;;;;155.37;55.90;;;-7.60;92.20;;;;;;5012259;28;20018;-85
2021/03/09 01:15:54;;;;;;;137.83;54.13;;;-7.70;92.60;;;;;;5028474;28;20369;-83
2021/03/09 01:18:20;;;;;;;144.47;56.50;;;-7.70;92.00;;;;;;5028229;28;20122;-82
2021/03/09 01:20:47;;;;;;;156.57;55.97;;;-7.60;92.70;;;;;;5011778;28;20037;-82
2021/03/09 01:23:13;;;;;;;154.77;53.90;;;-7.70;93.00;;;;;;5028606;28;20025;-82
2021/03/09 01:25:39;;;;;;;151.83;49.90;;;-7.70;93.50;;;;;;5011930;28;20044;-82
2021/03/09 01:28:06;;;;;;;156.40;55.77;;;-7.80;93.10;;;;;;5012073;28;20116;-82
2021/03/09 01:30:31;;;;;;;143.67;54.60;;;-7.70;94.30;;;;;;5028442;28;20129;-82
2021/03/09 01:32:57;;;;;;;142.13;51.37;;;-7.70;94.50;;;;;;5011939;28;20144;-82
2021/03/09 01:35:23;;;;;;;146.93;52.07;;;-7.80;93.60;;;;;;5013182;28;20025;-82
2021/03/09 01:37:48;;;;;;;156.47;54.77;;;-7.80;93.90;;;;;;5028302;28;20014;-81
2021/03/09 01:40:14;;;;;;;143.40;52.37;;;-7.70;94.20;;;;;;5013089;28;20022;-81
2021/03/09 01:42:40;;;;;;;123.17;46.60;;;-7.70;94.10;;;;;;5011803;28;20488;-82
2021/03/09 01:45:07;;;;;;;132.90;47.90;;;-7.80;93.90;;;;;;5012968;28;20072;-82
2021/03/09 01:47:36;;;;;;;124.40;46.70;;;-7.80;93.80;;;;;;5011735;28;20025;-84
2021/03/09 01:50:03;;;;;;;111.77;42.03;;;-7.80;93.90;;;;;;5012842;28;20041;-84
2021/03/09 01:52:29;;;;;;;111.50;41.57;;;-7.80;93.60;;;;;;5012971;28;20100;-84
2021/03/09 01:54:55;;;;;;;109.23;41.93;;;-7.80;93.00;;;;;;5028094;28;20022;-81
2021/03/09 01:57:21;;;;;;;132.97;45.60;;;-7.80;91.80;;;;;;5013075;28;20097;-81
2021/03/09 01:59:49;;;;;;;164.27;58.67;;;-7.90;91.40;;;;;;5028001;28;20109;-82
2021/03/09 02:02:15;;;;;;;141.20;53.00;;;-7.90;90.70;;;;;;5013051;28;20471;-83
2021/03/09 02:04:40;;;;;;;136.30;47.73;;;-8.00;90.00;;;;;;5011630;28;20033;-83
2021/03/09 02:07:06;;;;;;;145.30;53.60;;;-8.00;90.90;;;;;;5012898;28;20117;-82
2021/03/09 02:09:32;;;;;;;153.77;51.97;;;-8.00;91.50;;;;;;5012496;28;20030;-83
2021/03/09 02:12:22;;;;;;;112.93;45.83;;;-8.10;92.80;;;;;;5028015;28;20243;-83
2021/03/09 02:15:00;;;;;;;124.77;44.67;;;-8.10;92.80;;;;;;5028066;28;20030;-83
2021/03/09 02:17:58;;;;;;;126.73;46.27;;;-8.20;93.30;;;;;;5027877;28;20030;-82
2021/03/09 02:20:51;;;;;;;120.67;48.67;;;-8.20;93.00;;;;;;5012692;28;20038;-84
2021/03/09 02:23:41;;;;;;;121.77;46.10;;;-8.20;93.30;;;;;;5027925;28;20061;-82
2021/03/09 02:26:22;;;;;;;119.13;40.97;;;-8.20;93.90;;;;;;5012592;28;20061;-83
2021/03/09 02:28:47;;;;;;;102.97;37.70;;;-8.20;93.70;;;;;;5028601;28;20041;-85
2021/03/09 02:31:13;;;;;;;116.27;41.00;;;-8.20;94.10;;;;;;5031596;28;20034;-85
2021/03/09 02:33:42;;;;;;;120.77;42.53;;;-8.20;94.50;;;;;;5015090;28;20072;-85
2021/03/09 02:36:12;;;;;;;109.40;38.73;;;-8.20;94.40;;;;;;5015065;28;20518;-83
2021/03/09 02:39:02;;;;;;;110.63;38.87;;;-8.30;94.50;;;;;;5031769;28;20411;-84
2021/03/09 02:41:30;;;;;;;110.10;36.27;;;-8.30;95.20;;;;;;5030903;28;20020;-84
2021/03/09 02:43:56;;;;;;;110.03;42.63;;;-8.30;96.10;;;;;;5031322;28;20160;-88
2021/03/09 02:46:25;;;;;;;93.07;36.23;;;-8.30;96.40;;;;;;5014823;28;20546;-83
2021/03/09 02:48:52;;;;;;;108.30;39.17;;;-8.40;96.70;;;;;;5016086;28;20026;-83
2021/03/09 02:51:22;;;;;;;97.07;39.27;;;-8.40;96.80;;;;;;5014821;28;20026;-84
2021/03/09 02:53:51;;;;;;;119.17;41.63;;;-8.40;97.80;;;;;;5014668;28;20479;-85
2021/03/09 02:56:17;;;;;;;107.77;40.33;;;-8.40;98.10;;;;;;5014744;28;20030;-84
2021/03/09 02:58:45;;;;;;;103.90;38.03;;;-8.40;98.20;;;;;;5014613;28;20049;-85
2021/03/09 03:01:11;;;;;;;97.10;33.37;;;-8.30;97.70;;;;;;5014590;28;20495;-89
2021/03/09 03:03:41;;;;;;;83.63;33.43;;;-8.30;97.60;;;;;;5014089;28;20026;-88
2021/03/09 03:06:08;;;;;;;95.10;34.07;;;-8.30;97.20;;;;;;5014527;28;20107;-85
2021/03/09 03:08:36;;;;;;;104.70;36.13;;;-8.40;96.60;;;;;;5015645;28;20391;-83
2021/03/09 03:11:04;;;;;;;102.23;38.87;;;-8.30;95.00;;;;;;5031226;28;20186;-84
2021/03/09 03:13:32;;;;;;;87.70;38.17;;;-8.40;93.90;;;;;;5015936;28;20113;-83
2021/03/09 03:16:00;;;;;;;95.83;35.63;;;-8.40;93.30;;;;;;5030954;28;20040;-83
2021/03/09 03:18:29;;;;;;;85.30;35.20;;;-8.40;92.60;;;;;;5030813;28;20095;-85
2021/03/09 03:20:55;;;;;;;90.13;38.10;;;-8.30;92.90;;;;;;5015461;28;20022;-84
2021/03/09 03:23:23;;;;;;;103.97;35.40;;;-8.40;92.10;;;;;;5030308;28;20515;-81
2021/03/09 03:25:52;;;;;;;96.80;36.90;;;-8.40;91.60;;;;;;5014785;28;20034;-82
2021/03/09 03:28:20;;;;;;;98.83;38.93;;;-8.40;91.30;;;;;;5015379;28;20379;-84
2021/03/09 03:30:46;;;;;;;93.87;34.17;;;-8.40;91.50;;;;;;5015164;28;20491;-83
2021/03/09 03:33:12;;;;;;;93.97;33.00;;;-8.40;92.10;;;;;;5015348;28;20084;-83
2021/03/09 03:35:37;;;;;;;86.97;29.83;;;-8.50;91.30;;;;;;5030403;28;20018;-83
2021/03/09 03:38:04;;;;;;;94.93;37.43;;;-8.40;91.30;;;;;;5030424;28;20588;-83
2021/03/09 03:40:30;;;;;;;90.60;34.37;;;-8.50;90.60;;;;;;5028809;28;20014;-85
2021/03/09 03:42:56;;;;;;;87.87;32.50;;;-8.50;90.50;;;;;;5030201;28;20391;-87
2021/03/09 03:45:23;;;;;;;57.97;23.40;;;-8.50;90.60;;;;;;5012538;28;20044;-87
2021/03/09 03:47:56;;;;;;;65.13;22.73;;;-8.60;90.50;;;;;;5029999;28;20029;-84
2021/03/09 03:50:23;;;;;;;62.13;21.60;;;-8.60;90.80;;;;;;5015040;28;20475;-86
2021/03/09 03:53:07;;;;;;;61.83;22.20;;;-8.60;91.40;;;;;;5029923;28;20017;-85
2021/03/09 03:55:52;;;;;;;62.70;22.43;;;-8.60;91.30;;;;;;5029258;28;20058;-85
2021/03/09 03:58:44;;;;;;;57.17;19.73;;;-8.60;90.50;;;;;;5014940;28;20048;-85
2021/03/09 04:01:12;;;;;;;58.00;20.77;;;-8.60;89.80;;;;;;5030090;28;20450;-86
2021/03/09 04:03:38;;;;;;;56.90;22.40;;;-8.60;89.90;;;;;;5014504;28;20025;-84
2021/03/09 04:06:06;;;;;;;56.67;20.47;;;-8.60;89.90;;;;;;5029828;28;20080;-84
2021/03/09 04:08:36;;;;;;;54.30;21.20;;;-8.60;89.60;;;;;;5029761;28;20069;-84
2021/03/09 04:11:03;;;;;;;61.57;22.03;;;-8.60;89.30;;;;;;5013322;28;20026;-85
2021/03/09 04:13:32;;;;;;;65.10;26.50;;;-8.60;89.10;;;;;;5029669;28;20472;-83
2021/03/09 04:15:59;;;;;;;73.07;24.80;;;-8.60;89.50;;;;;;5013219;28;20064;-85
2021/03/09 04:18:26;;;;;;;52.53;22.17;;;-8.70;90.60;;;;;;5029872;28;20427;-85
2021/03/09 04:20:53;;;;;;;39.30;15.90;;;-8.70;91.80;;;;;;5014249;28;20036;-85
2021/03/09 04:23:19;;;;;;;51.00;15.57;;;-8.70;94.10;;;;;;5014409;28;20036;-86
2021/03/09 04:25:46;;;;;;;40.33;15.20;;;-8.70;94.90;;;;;;5028778;28;20080;-86
2021/03/09 04:28:13;;;;;;;69.23;25.50;;;-8.70;97.30;;;;;;5029504;28;20022;-86
2021/03/09 04:30:40;;;;;;;86.20;32.60;;;-8.70;97.50;;;;;;5012921;28;20026;-85
2021/03/09 04:33:07;;;;;;;102.17;37.47;;;-8.70;96.90;;;;;;5029370;28;20022;-86
2021/03/09 04:35:33;;;;;;;94.73;36.80;;;-8.80;93.90;;;;;;5029234;28;20415;-86
2021/03/09 04:37:59;;;;;;;111.90;43.20;;;-8.90;93.80;;;;;;5029057;28;20468;-87
2021/03/09 04:40:25;;;;;;;140.80;50.63;;;-8.80;93.30;;;;;;5028530;28;20072;-86
2021/03/09 04:42:51;;;;;;;131.87;43.67;;;-8.90;92.30;;;;;;5029172;28;20483;-84
2021/03/09 04:45:18;;;;;;;233.20;76.30;;;-8.90;92.20;;;;;;5013943;28;20041;-86
2021/03/09 04:47:44;;;;;;;212.87;70.70;;;-9.00;91.90;;;;;;5013850;28;20426;-85
2021/03/09 04:50:13;;;;;;;117.00;42.63;;;-8.90;92.50;;;;;;5013156;28;20108;-84
2021/03/09 04:52:39;;;;;;;40.50;17.43;;;-9.00;93.60;;;;;;5013487;28;20093;-84
2021/03/09 04:55:05;;;;;;;47.47;19.13;;;-9.00;98.50;;;;;;5013488;28;20025;-85
2021/03/09 04:57:39;;;;;;;61.30;22.23;;;-8.80;99.90;;;;;;5013569;28;20076;-84
2021/03/09 05:00:13;;;;;;;58.50;22.60;;;-8.80;99.90;;;;;;5013386;28;20026;-85
2021/03/09 05:02:39;;;;;;;58.97;23.13;;;-8.60;99.90;;;;;;5028337;28;20053;-83
2021/03/09 05:05:06;;;;;;;49.47;21.90;;;-8.60;99.90;;;;;;5028752;28;20495;-83
2021/03/09 05:07:32;;;;;;;42.70;16.00;;;-8.50;99.90;;;;;;5013477;28;20036;-86
2021/03/09 05:09:58;;;;;;;47.17;17.43;;;-8.40;99.90;;;;;;5011989;28;20034;-87
2021/03/09 05:12:23;;;;;;;31.17;14.23;;;-8.30;99.90;;;;;;5013599;28;20022;-85
2021/03/09 05:14:49;;;;;;;42.57;14.80;;;-8.20;99.90;;;;;;5013437;28;20022;-87
2021/03/09 05:17:15;;;;;;;39.57;15.77;;;-8.10;99.90;;;;;;5013598;28;20072;-86
2021/03/09 05:19:40;;;;;;;55.23;21.20;;;-8.00;99.90;;;;;;5028733;28;20036;-88
2021/03/09 05:22:06;;;;;;;54.07;19.63;;;-7.90;99.90;;;;;;5013450;28;20034;-87
2021/03/09 05:24:32;;;;;;;41.83;15.47;;;-8.00;99.90;;;;;;5011869;28;20026;-84
2021/03/09 05:26:58;;;;;;;42.30;18.53;;;-7.90;99.90;;;;;;5012989;28;20038;-86
2021/03/09 05:29:24;;;;;;;55.03;21.97;;;-7.90;99.90;;;;;;5012145;28;20128;-85
2021/03/09 05:31:49;;;;;;;59.87;23.00;;;-7.90;99.90;;;;;;5013289;28;20037;-84
2021/03/09 05:34:15;;;;;;;46.57;19.47;;;-8.00;97.40;;;;;;5011988;28;20026;-82
2021/03/09 05:36:41;;;;;;;56.77;22.47;;;-8.10;95.00;;;;;;5044933;28;20057;-84
2021/03/09 05:39:06;;;;;;;81.73;29.50;;;-8.00;94.50;;;;;;5011451;28;20034;-85
2021/03/09 05:41:35;;;;;;;85.50;30.53;;;-8.00;96.60;;;;;;5028126;28;20117;-83
2021/03/09 05:44:05;;;;;;;82.17;27.27;;;-7.90;98.70;;;;;;5027915;28;20368;-84
2021/03/09 05:46:31;;;;;;;69.50;27.77;;;-7.80;99.70;;;;;;5013094;28;20472;-83
2021/03/09 05:48:57;;;;;;;87.87;29.73;;;-7.70;99.90;;;;;;5011858;28;20068;-87
2021/03/09 05:51:24;;;;;;;90.23;34.03;;;-7.60;99.90;;;;;;5011835;28;20026;-84
2021/03/09 05:53:50;;;;;;;84.83;29.57;;;-7.50;99.90;;;;;;5012877;28;20464;-86
2021/03/09 05:56:16;;;;;;;70.43;23.20;;;-7.40;99.90;;;;;;5011802;28;20084;-84
2021/03/09 05:58:41;;;;;;;98.50;32.80;;;-7.30;99.90;;;;;;5011443;28;20037;-84
2021/03/09 06:01:07;;;;;;;258.80;73.73;;;-7.20;99.90;;;;;;5011706;28;20113;-84
2021/03/09 06:03:33;;;;;;;376.77;105.20;;;-7.10;99.90;;;;;;5011970;28;20110;-84
2021/03/09 06:05:58;;;;;;;209.07;67.03;;;-6.90;99.90;;;;;;5016273;28;20546;-84
2021/03/09 06:08:24;;;;;;;370.23;100.87;;;-6.80;99.90;;;;;;5016580;28;20487;-81
2021/03/09 06:10:50;;;;;;;307.97;87.87;;;-6.70;99.90;;;;;;5031418;28;20037;-83
2021/03/09 06:13:35;;;;;;;132.00;45.33;;;-6.60;99.90;;;;;;5031275;28;20041;-80
2021/03/09 06:16:01;;;;;;;100.40;34.63;;;-6.50;99.90;;;;;;5031894;28;20018;-83
2021/03/09 06:18:27;;;;;;;98.63;37.67;;;-6.30;99.90;;;;;;5017427;28;20049;-78
2021/03/09 06:21:08;;;;;;;67.07;28.17;;;-6.20;99.90;;;;;;5048770;28;20022;-81
2021/03/09 06:23:35;;;;;;;74.07;33.20;;;-6.10;99.90;;;;;;5031543;28;20030;-79
2021/03/09 06:26:01;;;;;;;72.30;31.33;;;-5.90;99.90;;;;;;5015280;28;20083;-80
2021/03/09 06:28:31;;;;;;;76.10;34.03;;;-5.70;99.90;;;;;;5015191;28;20037;-80
2021/03/09 06:31:01;;;;;;;87.97;38.17;;;-5.60;99.90;;;;;;5031541;28;20022;-81
2021/03/09 06:33:28;;;;;;;96.47;41.93;;;-5.40;99.90;;;;;;5014939;28;20018;-81
2021/03/09 06:35:55;;;;;;;75.57;35.70;;;-5.20;99.90;;;;;;5031243;28;20022;-80
2021/03/09 06:38:28;;;;;;;81.87;34.33;;;-5.10;99.90;;;;;;5030657;28;20388;-80
2021/03/09 06:41:17;;;;;;;69.17;35.83;;;-4.90;99.90;;;;;;5031290;28;20503;-81
2021/03/09 06:43:57;;;;;;;71.03;35.60;;;-4.80;99.90;;;;;;5016112;28;20026;-80
2021/03/09 06:46:23;;;;;;;77.73;34.30;;;-4.70;99.90;;;;;;5014102;28;20034;-80
2021/03/09 06:48:51;;;;;;;75.83;36.53;;;-4.50;99.90;;;;;;5029606;28;20029;-80
2021/03/09 06:51:31;;;;;;;79.23;36.57;;;-4.40;99.90;;;;;;5029638;28;20033;-80
2021/03/09 06:54:02;;;;;;;80.90;35.20;;;-4.20;99.90;;;;;;5019256;28;20030;-79
2021/03/09 06:56:28;;;;;;;143.43;59.30;;;-4.10;99.90;;;;;;5012928;28;20468;-80
2021/03/09 06:58:54;;;;;;;155.83;59.93;;;-4.00;99.90;;;;;;5011352;28;20164;-79
2021/03/09 07:01:20;;;;;;;147.47;59.77;;;-3.90;99.90;;;;;;5021364;28;20109;-77
2021/03/09 07:03:45;;;;;;;138.27;55.37;;;-3.80;99.90;;;;;;5019480;28;20029;-80
2021/03/09 07:06:11;;;;;;;128.27;50.83;;;-3.70;99.90;;;;;;5027494;28;20045;-81
2021/03/09 07:08:37;;;;;;;107.03;46.27;;;-3.60;99.90;;;;;;5012563;28;20018;-80
2021/03/09 07:11:03;;;;;;;119.30;47.00;;;-3.40;99.90;;;;;;5014796;28;20029;-78
2021/03/09 07:13:29;;;;;;;77.63;37.63;;;-3.20;99.90;;;;;;5008662;28;20094;-78
2021/03/09 07:15:55;;;;;;;48.70;22.10;;;-3.00;99.90;;;;;;5029252;28;20018;-77
2021/03/09 07:18:24;;;;;;;51.38;20.88;;;-2.80;99.90;;;;;;5013937;28;20136;-78
2021/03/09 07:20:53;;;;;;;61.10;22.13;;;-2.70;99.90;;;;;;5014056;28;20123;-79
2021/03/09 07:23:23;;;;;;;28.88;14.43;;;-2.50;98.60;;;;;;5013242;28;20021;-79
2021/03/09 07:26:15;;;;;;;31.33;14.75;;;-2.50;94.60;;;;;;5014466;28;20113;-79
2021/03/09 07:28:45;;;;;;;30.73;12.43;;;-2.30;92.80;;;;;;5010843;28;20049;-79
2021/03/09 07:31:12;;;;;;;25.52;11.80;;;-2.10;90.00;;;;;;5014654;28;20534;-79
2021/03/09 07:33:38;;;;;;;31.23;14.20;;;-1.90;87.80;;;;;;5013014;28;20030;-79
2021/03/09 07:36:04;;;;;;;31.70;14.98;;;-1.60;85.80;;;;;;5027991;28;20018;-78
2021/03/09 07:38:32;;;;;;;25.08;13.07;;;-1.50;84.00;;;;;;5014049;28;20033;-78
2021/03/09 07:40:58;;;;;;;32.13;16.42;;;-1.50;80.90;;;;;;5013332;28;20479;-77
2021/03/09 07:43:25;;;;;;;34.20;16.98;;;-1.40;78.30;;;;;;5013584;28;20054;-78
2021/03/09 07:45:51;;;;;;;27.77;15.98;;;-1.30;77.00;;;;;;5013781;28;20041;-81
2021/03/09 07:48:23;;;;;;;28.13;14.57;;;-1.30;74.30;;;;;;5011725;28;20022;-80
2021/03/09 07:50:50;;;;;;;29.50;16.40;;;-1.30;72.80;;;;;;5013109;28;20014;-80
2021/03/09 07:53:20;;;;;;;37.70;19.52;;;-1.20;71.20;;;;;;5014982;28;20021;-79
2021/03/09 07:56:03;;;;;;;52.75;20.15;;;-1.10;74.40;;;;;;5012288;28;20030;-82
2021/03/09 07:58:29;;;;;;;36.60;18.25;;;-1.00;75.90;;;;;;5024088;28;20472;-81
2021/03/09 08:01:03;;;;;;;39.28;18.95;;;-0.90;72.80;;;;;;5010829;28;20021;-80
2021/03/09 08:03:36;;;;;;;46.75;19.77;;;-0.90;69.90;;;;;;5012559;28;20484;-78
2021/03/09 08:06:10;;;;;;;212.80;67.70;;;-0.80;69.40;;;;;;5013536;28;20107;-77
2021/03/09 08:08:43;;;;;;;143.18;51.63;;;-0.70;68.70;;;;;;5012034;28;20033;-79
2021/03/09 08:11:31;;;;;;;72.18;28.73;;;-0.60;70.70;;;;;;5029257;28;20022;-79
2021/03/09 08:14:03;;;;;;;38.13;17.75;;;-0.50;69.30;;;;;;5003369;28;20457;-75
2021/03/09 08:16:34;;;;;;;35.20;16.80;;;-0.30;67.40;;;;;;5013783;28;20026;-79
2021/03/09 08:19:02;;;;;;;40.10;18.20;;;-0.30;66.30;;;;;;5012013;28;20076;-79
2021/03/09 08:21:47;;;;;;;36.63;13.93;;;-0.20;67.70;;;;;;5012372;28;20093;-80
2021/03/09 08:24:12;;;;;;;38.47;15.45;;;-0.30;62.60;;;;;;5013534;28;20033;-78
2021/03/09 08:26:38;;;;;;;34.75;17.50;;;-0.30;63.20;;;;;;5027549;28;20038;-80
2021/03/09 08:29:30;;;;;;;36.92;16.92;;;-0.30;63.40;;;;;;5013053;28;20033;-79
2021/03/09 08:32:23;;;;;;;27.98;13.65;;;-0.30;63.80;;;;;;5025070;28;20479;-80
2021/03/09 08:34:50;;;;;;;41.63;18.15;;;-0.30;60.70;;;;;;5011283;28;20030;-81
2021/03/09 08:37:32;;;;;;;45.47;19.10;;;-0.20;59.70;;;;;;5013104;28;20026;-82
2021/03/09 08:40:17;;;;;;;37.20;17.85;;;-0.20;59.70;;;;;;5011332;28;20030;-81
2021/03/09 08:43:01;;;;;;;20.63;11.55;;;-0.10;60.00;;;;;;5011655;28;20082;-78
2021/03/09 08:45:35;;;;;;;19.00;9.48;;;0.00;58.20;;;;;;5008380;28;20136;-81
2021/03/09 08:48:00;;;;;;;21.38;10.93;;;0.00;55.60;;;;;;5027719;28;20072;-78
2021/03/09 08:50:43;;;;;;;27.60;12.57;;;0.00;54.70;;;;;;5011953;28;20025;-79
2021/03/09 08:53:27;;;;;;;21.98;10.60;;;0.10;54.90;;;;;;5026779;28;20076;-78
2021/03/09 08:56:01;;;;;;;22.20;10.10;;;0.20;51.70;;;;;;5012648;28;20033;-79
2021/03/09 08:58:27;;;;;;;8.38;3.90;;;0.20;49.30;;;;;;5012981;28;20117;-78
2021/03/09 09:00:53;;;;;;;4.07;2.85;;;0.20;47.60;;;;;;5012920;28;20093;-77
2021/03/09 09:03:38;;;;;;;6.63;4.18;;;0.20;47.10;;;;;;5027038;28;20511;-79
2021/03/09 09:06:04;;;;;;;4.05;3.10;;;0.20;45.80;;;;;;5025593;28;20522;-78
2021/03/09 09:08:30;;;;;;;3.22;3.00;;;0.40;44.00;;;;;;5026370;28;20495;-78
2021/03/09 09:10:57;;;;;;;10.55;4.07;;;0.50;43.00;;;;;;5024383;28;20022;-78
2021/03/09 09:13:31;;;;;;;10.63;3.88;;;0.60;42.40;;;;;;5024672;28;20034;-78
2021/03/09 09:15:57;;;;;;;7.35;3.78;;;0.80;42.50;;;;;;5024576;28;20064;-78
2021/03/09 09:18:23;;;;;;;6.55;4.10;;;0.70;43.60;;;;;;5010219;28;20037;-79
2021/03/09 09:20:50;;;;;;;8.75;4.38;;;0.70;45.00;;;;;;5026786;28;20026;-78
2021/03/09 09:23:18;;;;;;;5.68;4.07;;;0.60;45.10;;;;;;5026900;28;20037;-79
2021/03/09 09:25:46;;;;;;;9.40;4.05;;;0.70;46.00;;;;;;5027011;28;20030;-78
2021/03/09 09:28:23;;;;;;;6.60;4.18;;;0.70;46.50;;;;;;5012841;28;20479;-79
2021/03/09 09:30:49;;;;;;;4.75;3.67;;;0.80;46.10;;;;;;5008522;28;20029;-79
2021/03/09 09:33:15;;;;;;;16.58;6.47;;;1.00;45.70;;;;;;5027846;28;20026;-79
2021/03/09 09:35:46;;;;;;;5.00;4.30;;;1.00;44.70;;;;;;5011934;28;20030;-80
2021/03/09 09:38:13;;;;;;;6.07;3.58;;;1.00;44.40;;;;;;5012477;28;20026;-80
2021/03/09 09:40:44;;;;;;;8.65;4.90;;;1.20;43.90;;;;;;5027582;28;20022;-78
2021/03/09 09:43:12;;;;;;;5.47;3.63;;;1.50;44.70;;;;;;5027960;28;20458;-78
2021/03/09 09:45:53;;;;;;;7.47;3.88;;;1.50;44.90;;;;;;5012192;28;20042;-78
2021/03/09 09:48:35;;;;;;;6.60;4.28;;;1.30;44.80;;;;;;5027791;28;20041;-78
2021/03/09 09:51:04;;;;;;;6.77;4.63;;;1.20;44.60;;;;;;5025848;28;20022;-78
2021/03/09 09:53:33;;;;;;;9.90;5.07;;;1.30;45.50;;;;;;5012337;28;20022;-78
2021/03/09 09:56:04;;;;;;;6.53;4.72;;;1.30;46.00;;;;;;5027685;28;20026;-79
2021/03/09 09:59:00;;;;;;;8.60;4.55;;;1.50;47.20;;;;;;5019155;28;20025;-79
2021/03/09 10:01:32;;;;;;;9.38;4.97;;;1.30;46.40;;;;;;5013000;28;20479;-78
2021/03/09 10:04:01;;;;;;;7.45;4.65;;;1.40;46.70;;;;;;5026983;28;20049;-79
2021/03/09 10:06:39;;;;;;;12.52;6.72;;;1.10;46.10;;;;;;5008402;28;20033;-80
2021/03/09 10:09:17;;;;;;;9.93;5.93;;;1.00;46.00;;;;;;5011119;28;20487;-80
2021/03/09 10:11:49;;;;;;;11.98;4.68;;;1.00;46.90;;;;;;5027337;28;20469;-79
2021/03/09 10:14:16;;;;;;;9.52;5.63;;;1.20;46.70;;;;;;5027431;28;20018;-79
2021/03/09 10:16:42;;;;;;;9.23;5.50;;;1.20;47.00;;;;;;5026963;28;20025;-79
2021/03/09 10:19:09;;;;;;;8.77;5.05;;;1.10;46.30;;;;;;5027185;28;20026;-78
2021/03/09 10:21:36;;;;;;;9.20;5.03;;;1.10;46.70;;;;;;5024158;28;20022;-78
2021/03/09 10:24:03;;;;;;;9.70;5.78;;;1.00;46.20;;;;;;5011982;28;20034;-78
2021/03/09 10:26:36;;;;;;;8.77;5.55;;;1.10;46.10;;;;;;5026391;28;20088;-79
2021/03/09 10:29:13;;;;;;;8.45;5.15;;;1.20;44.80;;;;;;5019355;28;20033;-78
2021/03/09 10:31:51;;;;;;;8.38;5.18;;;1.20;43.40;;;;;;5009445;28;20030;-79
2021/03/09 10:34:18;;;;;;;14.35;6.35;;;1.20;44.10;;;;;;5027084;28;20120;-79
2021/03/09 10:36:52;;;;;;;13.82;7.40;;;1.10;47.20;;;;;;5010466;28;20105;-79
2021/03/09 10:39:19;;;;;;;15.98;6.85;;;1.00;48.50;;;;;;5010354;28;20438;-79
2021/03/09 10:41:46;;;;;;;12.15;6.00;;;1.10;49.30;;;;;;5010744;28;20466;-78
2021/03/09 10:44:29;;;;;;;10.75;5.68;;;1.10;49.80;;;;;;5012071;28;20018;-79
2021/03/09 10:46:56;;;;;;;16.58;6.97;;;1.20;51.10;;;;;;5026986;28;20044;-79
2021/03/09 10:49:22;;;;;;;12.65;7.45;;;1.30;52.30;;;;;;5011457;28;20365;-79
2021/03/09 10:51:54;;;;;;;20.60;8.93;;;1.30;51.10;;;;;;5030147;28;20399;-79
2021/03/09 10:54:20;;;;;;;14.85;6.55;;;1.30;51.80;;;;;;5030714;28;20025;-77
2021/03/09 10:56:45;;;;;;;11.68;7.07;;;1.30;51.90;;;;;;5030158;28;20455;-78
2021/03/09 10:59:11;;;;;;;12.52;7.07;;;1.40;51.80;;;;;;5013108;28;20032;-80
2021/03/09 11:01:37;;;;;;;14.77;6.95;;;1.30;51.80;;;;;;5011935;28;20029;-79
2021/03/09 11:04:02;;;;;;;8.82;5.60;;;1.20;49.90;;;;;;5015265;28;20022;-78
2021/03/09 11:06:28;;;;;;;11.73;6.38;;;1.20;48.80;;;;;;5015221;28;20034;-79
2021/03/09 11:08:53;;;;;;;9.32;5.68;;;1.30;48.70;;;;;;5029363;28;20103;-78
2021/03/09 11:11:19;;;;;;;10.07;5.80;;;1.30;48.10;;;;;;5013685;28;20026;-79
2021/03/09 11:13:45;;;;;;;10.90;5.38;;;1.30;48.80;;;;;;5014839;28;20037;-79
2021/03/09 11:16:10;;;;;;;7.15;5.30;;;1.40;48.20;;;;;;5015155;28;20022;-79
2021/03/09 11:18:36;;;;;;;8.23;5.47;;;1.50;49.00;;;;;;5018656;28;20560;-78
2021/03/09 11:21:02;;;;;;;10.00;5.07;;;1.50;46.20;;;;;;5014951;28;20025;-77
2021/03/09 11:23:28;;;;;;;11.50;5.53;;;1.40;44.10;;;;;;5014909;28;20022;-78
2021/03/09 11:25:53;;;;;;;10.18;5.82;;;1.40;43.60;;;;;;5014678;28;20044;-79
2021/03/09 11:28:19;;;;;;;9.50;5.63;;;1.40;43.50;;;;;;5029851;28;20061;-78
2021/03/09 11:30:45;;;;;;;7.85;5.45;;;1.50;44.30;;;;;;5014749;28;20034;-79
2021/03/09 11:33:10;;;;;;;11.25;5.70;;;1.70;45.60;;;;;;5014832;28;20026;-78
2021/03/09 11:35:36;;;;;;;10.20;5.80;;;1.90;44.40;;;;;;5012047;28;20030;-79
2021/03/09 11:38:02;;;;;;;9.50;4.90;;;2.10;44.30;;;;;;5012893;28;20041;-79
2021/03/09 11:40:28;;;;;;;7.82;5.07;;;2.20;44.90;;;;;;5029705;28;20053;-78
2021/03/09 11:42:54;;;;;;;8.40;5.05;;;2.30;43.70;;;;;;5014643;28;20061;-79
2021/03/09 11:45:19;;;;;;;9.98;5.78;;;2.50;44.10;;;;;;5029722;28;20022;-78
2021/03/09 11:47:45;;;;;;;9.73;6.05;;;2.50;42.90;;;;;;5029536;28;20068;-78
2021/03/09 11:50:11;;;;;;;9.32;5.25;;;2.60;42.90;;;;;;5029524;28;20062;-78
2021/03/09 11:52:38;;;;;;;9.95;6.40;;;2.60;41.80;;;;;;5027678;28;20422;-79
2021/03/09 11:55:06;;;;;;;9.43;7.00;;;2.50;42.90;;;;;;5012427;28;20026;-79
2021/03/09 11:57:31;;;;;;;9.68;6.15;;;2.10;45.00;;;;;;5013732;28;20034;-79
2021/03/09 11:59:57;;;;;;;10.23;6.38;;;2.00;46.50;;;;;;5013604;28;20032;-78
2021/03/09 12:02:23;;;;;;;8.68;5.22;;;2.10;48.30;;;;;;5013435;28;20026;-77
2021/03/09 12:04:48;;;;;;;9.77;5.55;;;2.00;47.30;;;;;;5016876;28;20026;-77
2021/03/09 12:07:14;;;;;;;23.20;7.57;;;1.80;47.60;;;;;;5014129;28;20380;-78
2021/03/09 12:09:39;;;;;;;10.82;6.05;;;1.80;47.40;;;;;;5013855;28;20033;-78
2021/03/09 12:12:05;;;;;;;9.25;5.57;;;1.50;47.50;;;;;;5029054;28;20541;-79
2021/03/09 12:14:31;;;;;;;9.27;5.63;;;1.50;48.40;;;;;;5014401;28;20022;-77
2021/03/09 12:16:57;;;;;;;9.18;6.07;;;1.40;49.00;;;;;;5012864;28;20026;-78
2021/03/09 12:19:22;;;;;;;10.35;5.22;;;1.10;49.10;;;;;;5012029;28;20467;-77
2021/03/09 12:21:48;;;;;;;12.65;5.65;;;1.00;50.60;;;;;;5012415;28;20052;-79
2021/03/09 12:24:14;;;;;;;13.38;5.20;;;0.90;50.20;;;;;;5027932;28;20022;-77
2021/03/09 12:26:40;;;;;;;13.27;5.50;;;0.80;49.80;;;;;;5012033;28;20038;-78
2021/03/09 12:29:05;;;;;;;9.40;5.15;;;0.80;50.50;;;;;;5011177;28;20483;-78
2021/03/09 12:31:31;;;;;;;10.35;6.47;;;0.80;50.40;;;;;;5013705;28;20036;-78
2021/03/09 12:33:58;;;;;;;23.17;13.80;;;0.90;50.10;;;;;;5013610;28;20050;-77
2021/03/09 12:36:23;;;;;;;7.80;5.55;;;0.80;49.80;;;;;;5028825;28;20109;-77
2021/03/09 12:38:49;;;;;;;13.90;6.43;;;0.90;50.20;;;;;;5012299;28;20109;-76